createdAt,value
2019-03-11T00:01:09.796Z,96577.38
2019-03-11T00:05:11.695Z,96592.08
2019-03-11T00:09:13.595Z,96570.73
2019-03-11T00:13:17.089Z,96581.09
2019-03-11T00:17:19.658Z,96569.63
2019-03-11T00:21:21.566Z,96593.48
2019-03-11T00:25:23.453Z,96598.20
2019-03-11T00:29:25.347Z,96603.99
2019-03-11T00:33:27.253Z,96611.67
2019-03-11T00:37:30.385Z,96606.64
2019-03-11T00:41:32.294Z,96552.55
2019-03-11T00:45:34.183Z,96626.17
2019-03-11T00:49:36.091Z,96619.02
2019-03-11T00:53:37.984Z,96626.98
2019-03-11T00:57:39.885Z,96640.80
2019-03-11T01:01:41.782Z,96646.50
2019-03-11T01:05:43.677Z,96657.91
2019-03-11T01:09:46.559Z,96652.43
2019-03-11T01:13:48.449Z,96664.53
2019-03-11T01:17:50.363Z,96671.70
2019-03-11T01:21:52.255Z,96665.20
2019-03-11T01:25:54.230Z,96666.54
2019-03-11T01:29:56.138Z,96666.09
2019-03-11T01:33:58.027Z,96650.71
2019-03-11T01:37:59.934Z,96655.00
2019-03-11T01:42:01.841Z,96664.61
2019-03-11T01:46:03.725Z,96675.22
2019-03-11T01:50:08.544Z,96676.47
2019-03-11T01:54:11.527Z,96673.66
2019-03-11T01:58:13.431Z,96676.45
2019-03-11T02:02:15.311Z,96667.36
2019-03-11T02:06:17.211Z,96663.54
2019-03-11T02:10:20.316Z,96655.05
2019-03-11T02:14:22.218Z,96653.61
2019-03-11T02:18:24.124Z,96650.60
2019-03-11T02:22:26.020Z,96647.86
2019-03-11T02:26:27.916Z,96651.91
2019-03-11T02:30:30.507Z,96658.61
2019-03-11T02:34:32.406Z,96645.20
2019-03-11T02:38:34.274Z,96644.36
2019-03-11T02:42:36.178Z,96634.48
2019-03-11T02:46:38.079Z,96641.06
2019-03-11T02:50:39.978Z,96629.19
2019-03-11T02:54:41.889Z,96576.48
2019-03-11T02:58:43.793Z,96619.78
2019-03-11T03:02:51.204Z,96623.00
2019-03-11T03:06:53.159Z,96615.70
2019-03-11T03:10:55.072Z,96614.34
2019-03-11T03:14:56.969Z,96610.48
2019-03-11T03:18:58.879Z,96599.80
2019-03-11T03:23:00.775Z,96594.70
2019-03-11T03:27:02.677Z,96594.45
2019-03-11T03:31:04.725Z,96591.83
2019-03-11T03:35:07.669Z,96593.34
2019-03-11T03:39:09.565Z,96572.29
2019-03-11T03:43:11.461Z,96571.30
2019-03-11T03:47:13.385Z,96570.42
2019-03-11T03:51:15.334Z,96567.77
2019-03-11T03:55:18.233Z,96555.27
2019-03-11T03:59:20.120Z,96557.55
2019-03-11T04:03:22.022Z,96558.93
2019-03-11T04:07:23.937Z,96546.48
2019-03-11T04:11:25.848Z,96538.89
2019-03-11T04:15:27.829Z,96531.30
2019-03-11T04:19:30.784Z,96532.16
2019-03-11T04:23:32.687Z,96518.45
2019-03-11T04:27:34.656Z,96513.30
2019-03-11T04:31:36.575Z,96504.80
2019-03-11T04:35:38.487Z,96501.25
2019-03-11T04:39:40.372Z,96484.50
2019-03-11T04:43:42.283Z,96481.68
2019-03-11T04:47:44.428Z,96477.64
2019-03-11T04:51:46.333Z,96472.73
2019-03-11T04:55:48.236Z,96470.02
2019-03-11T04:59:50.140Z,96457.81
2019-03-11T05:03:52.031Z,96448.89
2019-03-11T05:07:53.948Z,96443.41
2019-03-11T05:11:55.850Z,96447.13
2019-03-11T05:15:57.743Z,96438.11
2019-03-11T05:19:59.657Z,96434.28
2019-03-11T05:24:01.556Z,96436.31
2019-03-11T05:28:04.435Z,96433.92
2019-03-11T05:32:06.346Z,96434.02
2019-03-11T05:36:08.264Z,96418.02
2019-03-11T05:40:16.797Z,96410.96
2019-03-11T05:44:18.691Z,96407.65
2019-03-11T05:48:21.569Z,96399.34
2019-03-11T05:52:23.469Z,96404.89
2019-03-11T05:56:25.381Z,96400.03
2019-03-11T06:00:28.931Z,96383.65
2019-03-11T06:04:30.894Z,96381.99
2019-03-11T06:08:33.041Z,96387.71
2019-03-11T06:12:34.944Z,96386.42
2019-03-11T06:16:36.859Z,96390.72
2019-03-11T06:20:49.254Z,96380.63
2019-03-11T06:24:51.143Z,96392.19
2019-03-11T06:28:53.064Z,96394.52
2019-03-11T06:32:54.960Z,96393.91
2019-03-11T06:36:56.873Z,96392.11
2019-03-11T06:40:58.779Z,96384.80
2019-03-11T06:45:00.667Z,96390.00
2019-03-11T06:49:02.574Z,96388.23
2019-03-11T06:53:05.458Z,96373.56
2019-03-11T06:57:07.370Z,96372.58
2019-03-11T07:01:09.298Z,96380.66
2019-03-11T07:05:20.066Z,96383.59
2019-03-11T07:09:14.896Z,96402.63
2019-03-11T07:13:16.853Z,96431.68
2019-03-11T07:17:18.842Z,96425.64
2019-03-11T07:21:20.752Z,96401.63
2019-03-11T07:25:22.633Z,96406.41
2019-03-11T07:29:24.532Z,96395.50
2019-03-11T07:33:26.433Z,96412.29
2019-03-11T07:37:28.421Z,96422.41
2019-03-11T07:41:30.680Z,96427.52
2019-03-11T07:45:32.563Z,96463.83
2019-03-11T07:49:34.481Z,96477.99
2019-03-11T07:53:36.381Z,96479.05
2019-03-11T07:57:38.285Z,96488.80
2019-03-11T08:01:40.175Z,96488.11
2019-03-11T08:05:42.141Z,96483.51
2019-03-11T08:09:44.046Z,96494.64
2019-03-11T08:13:45.951Z,96490.91
2019-03-11T08:17:47.855Z,96498.98
2019-03-11T08:21:49.795Z,96507.40
2019-03-11T08:25:51.650Z,96511.25
2019-03-11T08:30:12.572Z,96520.94
2019-03-11T08:34:14.453Z,96521.20
2019-03-11T08:38:16.350Z,96523.70
2019-03-11T08:42:18.268Z,96529.00
2019-03-11T08:46:20.151Z,96521.65
2019-03-11T08:50:22.034Z,96532.73
2019-03-11T08:54:24.001Z,96524.20
2019-03-11T08:58:25.973Z,96520.34
2019-03-11T09:02:27.872Z,96532.30
2019-03-11T09:06:30.741Z,96526.44
2019-03-11T09:10:32.622Z,96525.82
2019-03-11T09:14:34.522Z,96543.97
2019-03-11T09:18:36.421Z,96538.20
2019-03-11T09:22:38.393Z,96545.28
2019-03-11T09:26:40.298Z,96557.84
2019-03-11T09:30:42.183Z,96552.93
2019-03-11T09:34:44.093Z,96557.64
2019-03-11T09:38:46.050Z,96546.64
2019-03-11T09:42:47.949Z,96553.18
2019-03-11T09:46:49.865Z,96549.38
2019-03-11T09:50:51.740Z,96543.34
2019-03-11T09:54:53.646Z,96530.80
2019-03-11T09:58:55.543Z,96539.61
2019-03-11T10:02:58.816Z,96543.13
2019-03-11T10:07:00.713Z,96567.82
2019-03-11T10:11:02.600Z,96555.96
2019-03-11T10:15:06.549Z,96543.20
2019-03-11T10:19:08.495Z,96549.48
2019-03-11T10:23:10.403Z,96545.09
2019-03-11T10:27:12.296Z,96548.78
2019-03-11T10:31:14.181Z,96551.09
2019-03-11T10:35:33.391Z,96550.03
2019-03-11T10:39:21.493Z,96547.27
2019-03-11T10:43:23.393Z,96561.27
2019-03-11T10:47:25.288Z,96569.34
2019-03-11T10:51:27.180Z,96582.70
2019-03-11T10:55:29.550Z,96598.38
2019-03-11T10:59:31.449Z,96583.91
2019-03-11T11:03:33.367Z,96597.27
2019-03-11T11:07:35.251Z,96599.19
2019-03-11T11:11:37.137Z,96605.81
2019-03-11T11:15:39.028Z,96611.78
2019-03-11T11:19:40.937Z,96620.03
2019-03-11T11:23:42.833Z,96618.13
2019-03-11T11:27:44.987Z,96625.64
2019-03-11T11:31:46.871Z,96610.27
2019-03-11T11:35:48.778Z,96610.84
2019-03-11T11:39:50.693Z,96606.20
2019-03-11T11:43:52.573Z,96602.02
2019-03-11T11:47:54.545Z,96600.69
2019-03-11T11:51:56.464Z,96599.45
2019-03-11T11:56:06.105Z,96601.02
2019-03-11T12:00:24.705Z,96606.53
2019-03-11T12:04:26.604Z,96612.56
2019-03-11T12:08:29.489Z,96630.29
2019-03-11T12:12:31.437Z,96642.47
2019-03-11T12:16:33.334Z,96626.01
2019-03-11T12:20:35.217Z,96620.16
2019-03-11T12:24:38.641Z,96628.61
2019-03-11T12:28:40.473Z,96675.36
2019-03-11T12:32:42.368Z,96687.82
2019-03-11T12:36:44.330Z,96685.25
2019-03-11T12:40:46.212Z,96677.70
2019-03-11T12:44:48.101Z,96652.43
2019-03-11T12:48:49.993Z,96644.36
2019-03-11T12:52:52.248Z,96653.78
2019-03-11T12:56:54.140Z,96647.34
2019-03-11T13:00:56.016Z,96654.22
2019-03-11T13:04:57.901Z,96639.34
2019-03-11T13:08:59.798Z,96647.35
2019-03-11T13:13:01.679Z,96639.20
2019-03-11T13:17:03.569Z,96635.17
2019-03-11T13:21:16.199Z,96622.70
2019-03-11T13:25:18.090Z,96637.00
2019-03-11T13:29:19.983Z,96625.92
2019-03-11T13:33:21.889Z,96648.34
2019-03-11T13:37:23.855Z,96643.80
2019-03-11T13:41:25.727Z,96647.72
2019-03-11T13:45:27.695Z,96639.44
2019-03-11T13:49:29.580Z,96629.92
2019-03-11T13:53:31.554Z,96640.02
2019-03-11T13:57:33.440Z,96679.21
2019-03-11T14:01:35.389Z,96648.02
2019-03-11T14:05:38.266Z,96647.06
2019-03-11T14:09:40.157Z,96662.41
2019-03-11T14:13:42.049Z,96656.98
2019-03-11T14:17:43.938Z,96671.08
2019-03-11T14:21:45.814Z,96663.11
2019-03-11T14:25:47.789Z,96676.69
2019-03-11T14:29:49.690Z,96682.53
2019-03-11T14:33:52.648Z,96690.72
2019-03-11T14:37:54.609Z,96711.59
2019-03-11T14:41:56.487Z,96727.38
2019-03-11T14:45:58.403Z,96713.75
2019-03-11T14:50:00.287Z,96732.47
2019-03-11T14:54:02.189Z,96731.91
2019-03-11T14:58:04.158Z,96730.94
2019-03-11T15:02:06.036Z,96739.04
2019-03-11T15:06:07.941Z,96740.18
2019-03-11T15:10:13.782Z,96741.49
2019-03-11T15:14:15.678Z,96756.36
2019-03-11T15:18:17.576Z,96764.38
2019-03-11T15:22:19.521Z,96761.73
2019-03-11T15:26:25.008Z,96767.88
2019-03-11T15:30:26.080Z,96764.47
2019-03-11T15:34:27.981Z,96774.55
2019-03-11T15:38:29.870Z,96766.50
2019-03-11T15:42:31.750Z,96766.80
2019-03-11T15:46:39.237Z,96762.64
2019-03-11T15:50:37.813Z,96761.48
2019-03-11T15:54:42.516Z,96751.81
2019-03-11T15:58:44.419Z,96745.47
2019-03-11T16:02:46.530Z,96759.02
2019-03-11T16:06:48.423Z,96770.89
2019-03-11T16:10:50.384Z,96775.13
2019-03-11T16:14:52.286Z,96785.81
2019-03-11T16:18:54.175Z,96776.64
2019-03-11T16:22:56.102Z,96798.25
2019-03-11T16:26:58.012Z,96815.46
2019-03-11T16:30:59.907Z,96806.73
2019-03-11T16:35:01.812Z,96812.14
2019-03-11T16:39:04.849Z,96813.97
2019-03-11T16:43:07.978Z,96829.12
2019-03-11T16:47:09.878Z,96815.91
2019-03-11T16:51:11.781Z,96813.52
2019-03-11T16:55:21.680Z,96830.13
2019-03-11T16:59:23.581Z,96847.53
2019-03-11T17:03:25.474Z,96830.59
2019-03-11T17:07:27.376Z,96832.58
2019-03-11T17:11:29.276Z,96844.36
2019-03-11T17:15:31.340Z,96829.61
2019-03-11T17:19:33.246Z,96851.16
2019-03-11T17:23:35.161Z,96845.60
2019-03-11T17:27:37.061Z,96861.51
2019-03-11T17:31:38.971Z,96878.58
2019-03-11T17:35:40.868Z,96884.80
2019-03-11T17:39:42.763Z,96887.67
2019-03-11T17:43:44.672Z,96889.72
2019-03-11T17:47:46.698Z,96888.05
2019-03-11T17:51:49.676Z,96884.97
2019-03-11T17:55:51.704Z,96898.55
2019-03-11T17:59:53.676Z,96901.74
2019-03-11T18:03:55.568Z,96905.71
2019-03-11T18:07:57.491Z,96920.72
2019-03-11T18:11:59.406Z,96932.44
2019-03-11T18:16:01.705Z,96925.04
2019-03-11T18:20:04.935Z,96927.75
2019-03-11T18:24:23.137Z,96928.77
2019-03-11T18:28:25.081Z,96931.25
2019-03-11T18:32:26.996Z,96926.84
2019-03-11T18:36:28.973Z,96928.63
2019-03-11T18:40:31.312Z,96929.94
2019-03-11T18:44:33.230Z,96933.38
2019-03-11T18:48:35.144Z,96939.75
2019-03-11T18:52:37.031Z,96933.18
2019-03-11T18:56:38.942Z,96940.05
2019-03-11T19:00:40.881Z,96946.59
2019-03-11T19:04:42.731Z,96949.05
2019-03-11T19:08:44.631Z,96948.72
2019-03-11T19:12:46.662Z,96954.80
2019-03-11T19:16:48.544Z,96951.18
2019-03-11T19:20:50.493Z,96953.16
2019-03-11T19:24:52.439Z,96945.27
2019-03-11T19:28:54.432Z,96957.66
2019-03-11T19:32:56.790Z,96961.44
2019-03-11T19:36:58.679Z,96949.49
2019-03-11T19:41:00.678Z,96969.08
2019-03-11T19:45:02.587Z,96984.14
2019-03-11T19:49:06.167Z,96975.28
2019-03-11T19:53:08.079Z,96972.67
2019-03-11T19:57:09.934Z,96974.47
2019-03-11T20:01:11.841Z,96967.34
2019-03-11T20:05:19.991Z,96979.88
2019-03-11T20:09:21.922Z,96980.70
2019-03-11T20:13:23.998Z,96973.30
2019-03-11T20:17:25.913Z,96958.26
2019-03-11T20:21:27.828Z,96970.34
2019-03-11T20:25:32.401Z,96960.42
2019-03-11T20:29:34.371Z,96959.85
2019-03-11T20:33:36.357Z,96953.77
2019-03-11T20:37:38.307Z,96952.11
2019-03-11T20:41:40.207Z,96943.10
2019-03-11T20:45:42.163Z,96925.14
2019-03-11T20:49:44.112Z,96924.13
2019-03-11T20:53:46.059Z,96927.66
2019-03-11T20:57:48.168Z,96936.77
2019-03-11T21:01:50.074Z,96949.09
2019-03-11T21:05:56.255Z,96962.84
2019-03-11T21:09:58.203Z,96963.28
2019-03-11T21:14:00.105Z,96972.14
2019-03-11T21:18:02.104Z,96985.22
2019-03-11T21:22:04.136Z,96972.58
2019-03-11T21:26:06.070Z,96977.91
2019-03-11T21:30:15.933Z,96979.91
2019-03-11T21:34:17.885Z,96982.86
2019-03-11T21:38:19.767Z,96973.12
2019-03-11T21:42:21.705Z,96982.59
2019-03-11T21:46:23.658Z,96978.58
2019-03-11T21:50:30.335Z,96982.28
2019-03-11T21:54:32.272Z,96997.48
2019-03-11T21:58:34.318Z,96975.42
2019-03-11T22:02:36.245Z,96915.27
2019-03-11T22:06:38.138Z,96974.75
2019-03-11T22:10:41.660Z,96973.48
2019-03-11T22:14:44.368Z,96973.84
2019-03-11T22:18:46.269Z,96966.34
2019-03-11T22:22:48.163Z,96963.73
2019-03-11T22:26:50.057Z,96956.59
2019-03-11T22:30:51.950Z,96958.91
2019-03-11T22:34:53.875Z,96963.79
2019-03-11T22:38:55.780Z,96963.63
2019-03-11T22:42:57.689Z,96968.00
2019-03-11T22:46:59.572Z,96998.02
2019-03-11T22:51:01.524Z,96972.89
2019-03-11T22:55:03.998Z,96974.41
2019-03-11T22:59:05.887Z,96979.75
2019-03-11T23:03:07.793Z,96991.13
2019-03-11T23:07:09.686Z,97006.16
2019-03-11T23:11:11.590Z,97009.05
2019-03-11T23:15:13.493Z,97027.63
2019-03-11T23:19:15.386Z,97020.44
2019-03-11T23:23:17.285Z,97038.73
2019-03-11T23:27:19.173Z,97052.13
2019-03-11T23:31:21.073Z,97051.77
2019-03-11T23:35:23.042Z,97057.94
2019-03-11T23:39:24.944Z,97078.65
2019-03-11T23:43:26.845Z,97094.97
2019-03-11T23:47:28.735Z,97098.89
2019-03-11T23:51:31.497Z,97100.00
2019-03-11T23:55:33.375Z,97105.22
2019-03-11T23:59:35.279Z,97109.16
